createdAt,value
2017-10-01T00:03:11.424Z,0
2017-10-01T00:13:11.432Z,0
2017-10-01T00:23:11.436Z,0
2017-10-01T00:33:13.459Z,0
2017-10-01T00:43:11.487Z,0
2017-10-01T00:53:11.500Z,0
2017-10-01T01:03:11.460Z,0
2017-10-01T01:13:11.498Z,0
2017-10-01T01:23:11.454Z,0
2017-10-01T01:33:11.496Z,0
2017-10-01T01:43:12.604Z,0
2017-10-01T01:53:11.508Z,0
2017-10-01T02:03:12.653Z,0
2017-10-01T02:13:11.854Z,0
2017-10-01T02:23:11.511Z,0
2017-10-01T02:33:11.544Z,0
2017-10-01T02:43:12.638Z,0
2017-10-01T02:53:15.925Z,0
2017-10-01T03:03:11.717Z,0
2017-10-01T03:13:12.129Z,0
2017-10-01T03:23:11.692Z,0
2017-10-01T03:33:16.155Z,0
2017-10-01T03:43:11.618Z,0
2017-10-01T03:53:12.724Z,0
2017-10-01T04:03:13.699Z,0
2017-10-01T04:13:12.770Z,0
2017-10-01T04:23:12.688Z,0
2017-10-01T04:33:12.761Z,0
2017-10-01T04:43:12.026Z,0
2017-10-01T04:53:11.837Z,0
2017-10-01T05:03:12.307Z,0
2017-10-01T05:13:12.297Z,16
2017-10-01T05:23:12.090Z,76
2017-10-01T05:33:11.981Z,240
2017-10-01T05:43:12.088Z,508
2017-10-01T05:53:11.768Z,856
2017-10-01T06:03:11.803Z,1596
2017-10-01T06:13:11.787Z,2168
2017-10-01T06:23:11.858Z,3060
2017-10-01T06:33:11.828Z,3328
2017-10-01T06:43:12.071Z,3288
2017-10-01T06:53:12.215Z,3512
2017-10-01T07:03:12.293Z,3368
2017-10-01T07:33:13.818Z,3644
2017-10-01T07:43:15.031Z,3852
2017-10-01T07:53:13.816Z,4940
2017-10-01T08:03:17.105Z,3544
2017-10-01T08:13:11.938Z,3432
2017-10-01T08:23:11.889Z,3420
2017-10-01T08:33:11.854Z,3504
2017-10-01T08:43:11.821Z,3464
2017-10-01T08:53:11.845Z,3424
2017-10-01T09:03:11.889Z,3360
2017-10-01T09:13:12.434Z,3264
2017-10-01T09:23:11.843Z,3288
2017-10-01T09:33:11.828Z,3264
2017-10-01T09:43:11.858Z,3264
2017-10-01T09:53:11.821Z,3216
2017-10-01T10:03:11.875Z,3200
2017-10-01T10:13:11.859Z,3152
2017-10-01T10:23:11.854Z,3120
2017-10-01T10:33:11.916Z,3128
2017-10-01T10:43:12.684Z,3168
2017-10-01T10:53:12.199Z,3120
2017-10-01T11:03:11.936Z,3236
2017-10-01T11:13:12.075Z,3744
2017-10-01T11:23:11.879Z,3140
2017-10-01T11:33:11.856Z,4372
2017-10-01T11:43:26.396Z,3428
2017-10-01T11:53:20.851Z,3028
2017-10-01T12:03:22.969Z,2832
2017-10-01T12:14:05.913Z,3104
2017-10-01T12:24:03.807Z,4524
2017-10-01T12:34:06.003Z,2916
2017-10-01T12:44:03.908Z,3828
2017-10-01T12:54:06.474Z,3072
2017-10-01T13:04:04.634Z,3008
2017-10-01T13:14:05.898Z,3084
2017-10-01T13:24:03.963Z,3456
2017-10-01T13:34:02.731Z,4960
2017-10-01T13:44:06.200Z,3984
2017-10-01T13:54:06.575Z,5024
2017-10-01T14:04:07.857Z,5508
2017-10-01T14:14:03.862Z,4940
2017-10-01T14:24:04.263Z,3744
2017-10-01T14:34:03.187Z,3036
2017-10-01T14:44:04.081Z,5108
2017-10-01T14:53:58.717Z,4956
2017-10-01T15:04:05.453Z,5092
2017-10-01T15:14:01.903Z,3788
2017-10-01T15:24:03.110Z,2020
2017-10-01T15:34:02.921Z,2828
2017-10-01T15:44:03.873Z,2504
2017-10-01T15:54:02.270Z,1728
2017-10-01T16:04:03.945Z,1424
2017-10-01T16:14:07.781Z,960
2017-10-01T16:24:03.538Z,956
2017-10-01T16:34:03.883Z,952
2017-10-01T16:44:03.410Z,660
2017-10-01T16:54:06.304Z,304
2017-10-01T17:04:01.340Z,136
2017-10-01T17:14:00.662Z,56
2017-10-01T17:24:00.506Z,12
2017-10-01T17:34:01.849Z,4
2017-10-01T17:44:02.984Z,4
2017-10-01T17:54:02.367Z,0
2017-10-01T18:04:01.727Z,0
2017-10-01T18:14:01.139Z,0
2017-10-01T18:24:05.047Z,0
2017-10-01T18:34:01.648Z,4
2017-10-01T18:44:03.915Z,0
2017-10-01T18:54:07.650Z,0
2017-10-01T19:04:03.269Z,0
2017-10-01T19:14:06.324Z,0
2017-10-01T19:24:05.176Z,0
2017-10-01T19:34:02.605Z,0
2017-10-01T19:44:08.986Z,0
2017-10-01T19:54:07.856Z,0
2017-10-01T20:04:03.682Z,0
2017-10-01T20:14:04.851Z,0
2017-10-01T20:24:03.393Z,0
2017-10-01T20:34:03.260Z,0
2017-10-01T20:44:03.401Z,0
2017-10-01T20:54:05.531Z,0
2017-10-01T21:04:05.315Z,0
2017-10-01T21:14:02.870Z,0
2017-10-01T21:24:02.979Z,0
2017-10-01T21:34:03.616Z,0
2017-10-01T21:44:04.501Z,0
2017-10-01T21:54:00.961Z,0
2017-10-01T22:04:03.205Z,0
2017-10-01T22:14:02.766Z,0
2017-10-01T22:24:04.769Z,0
2017-10-01T22:34:03.192Z,0
2017-10-01T22:44:04.461Z,0
2017-10-01T22:54:02.803Z,0
2017-10-01T23:04:02.973Z,0
2017-10-01T23:14:03.104Z,0
2017-10-01T23:24:03.391Z,0
2017-10-01T23:34:06.343Z,0
2017-10-01T23:44:03.215Z,0
2017-10-01T23:54:03.337Z,0
